Time;durP1;ratioP1;P1;durP2;ratioP2;P2;SDS_P1;SDS_P2;PMS_P1;PMS_P2;Temp;Humidity;BMP_temperature;BMP_pressure;BME280_temperature;BME280_humidity;BME280_pressure;Samples;Min_cycle;Max_cycle;Signal;HPM_P1;HPM_P2
2021/12/10 00:00:18;;;;;;;5.20;2.03;;;2.00;99.90;;;;;;5092810;28;20274;-58
2021/12/10 00:02:46;;;;;;;3.17;1.85;;;1.90;99.90;;;;;;5093417;28;20175;-58
2021/12/10 00:05:17;;;;;;;4.87;1.70;;;1.80;99.90;;;;;;5093433;28;20681;-58
2021/12/10 00:07:43;;;;;;;4.33;1.73;;;1.70;99.90;;;;;;5093360;28;20225;-58
2021/12/10 00:10:14;;;;;;;3.67;1.87;;;1.70;99.90;;;;;;5091894;28;20188;-58
2021/12/10 00:12:49;;;;;;;2.03;1.50;;;1.60;99.90;;;;;;5092626;28;20180;-58
2021/12/10 00:15:17;;;;;;;3.63;1.43;;;1.60;99.90;;;;;;5092447;28;20184;-59
2021/12/10 00:17:43;;;;;;;3.07;1.77;;;1.60;99.90;;;;;;5092675;28;20545;-58
2021/12/10 00:20:11;;;;;;;4.40;1.73;;;1.50;99.90;;;;;;5092611;28;20184;-58
2021/12/10 00:22:42;;;;;;;1.90;1.50;;;1.50;99.90;;;;;;5092890;28;20539;-58
2021/12/10 00:25:18;;;;;;;4.63;1.60;;;1.50;99.90;;;;;;5093126;28;20176;-58
2021/12/10 00:27:45;;;;;;;5.30;1.90;;;1.50;99.90;;;;;;5092827;28;20180;-58
2021/12/10 00:30:44;;;;;;;5.30;2.70;;;1.50;99.90;;;;;;5093042;28;20245;-58
2021/12/10 00:33:20;;;;;;;6.40;1.63;;;1.50;99.90;;;;;;5092942;28;20169;-58
2021/12/10 00:35:46;;;;;;;3.23;1.50;;;1.50;99.90;;;;;;5093092;28;20188;-58
2021/12/10 00:38:12;;;;;;;3.97;2.00;;;1.40;99.90;;;;;;5092765;28;20242;-59
2021/12/10 00:40:38;;;;;;;3.40;1.50;;;1.50;99.90;;;;;;5092550;28;20679;-58
2021/12/10 00:43:04;;;;;;;4.37;1.90;;;1.50;99.90;;;;;;5092760;28;20183;-58
2021/12/10 00:45:29;;;;;;;3.50;1.53;;;1.50;99.90;;;;;;5092240;28;20659;-58
2021/12/10 00:47:55;;;;;;;2.22;1.60;;;1.40;99.90;;;;;;5092526;28;20248;-58
2021/12/10 00:50:25;;;;;;;2.10;1.37;;;1.40;99.90;;;;;;5092596;28;20225;-59
2021/12/10 00:52:53;;;;;;;4.07;1.60;;;1.40;99.90;;;;;;5092479;28;20176;-58
2021/12/10 00:55:20;;;;;;;3.70;1.70;;;1.30;99.90;;;;;;5092107;28;21011;-58
2021/12/10 00:57:46;;;;;;;2.90;1.60;;;1.30;99.90;;;;;;5092452;28;20225;-59
2021/12/10 01:00:19;;;;;;;4.07;1.93;;;1.30;99.90;;;;;;5091238;28;20183;-58
2021/12/10 01:02:45;;;;;;;5.20;2.13;;;1.30;99.90;;;;;;5104671;28;20179;-58
2021/12/10 01:05:12;;;;;;;3.30;2.13;;;1.30;99.90;;;;;;5092368;28;20182;-58
2021/12/10 01:07:38;;;;;;;3.60;2.00;;;1.30;99.90;;;;;;5091972;28;20160;-58
2021/12/10 01:10:16;;;;;;;6.80;2.30;;;1.30;99.90;;;;;;5092350;28;20601;-59
2021/12/10 01:12:46;;;;;;;12.47;5.30;;;1.30;99.90;;;;;;5092231;28;20176;-58
2021/12/10 01:15:48;;;;;;;9.87;4.60;;;1.30;99.90;;;;;;5092171;28;20190;-58
2021/12/10 01:23:58;;;;;;;3.63;2.47;;;1.20;99.90;;;;;;5091873;28;20234;-58
2021/12/10 01:29:17;;;;;;;4.80;2.70;;;1.10;99.90;;;;;;5091286;28;20208;-58
2021/12/10 01:31:44;;;;;;;6.93;3.23;;;1.10;99.90;;;;;;5091945;28;20176;-58
2021/12/10 01:34:09;;;;;;;6.67;3.73;;;1.10;99.90;;;;;;5090604;28;20181;-58
2021/12/10 01:36:37;;;;;;;6.40;3.77;;;1.10;99.90;;;;;;5091732;28;20704;-58
2021/12/10 01:39:07;;;;;;;8.47;4.03;;;1.00;99.90;;;;;;5092061;28;20172;-58
2021/12/10 01:41:36;;;;;;;11.77;5.13;;;1.00;99.90;;;;;;5091906;28;20622;-58
2021/12/10 01:44:14;;;;;;;12.00;5.27;;;1.00;99.90;;;;;;5091871;28;20168;-58
2021/12/10 01:46:40;;;;;;;8.67;5.07;;;1.00;99.90;;;;;;5091387;28;20176;-59
2021/12/10 01:49:07;;;;;;;7.33;4.13;;;1.00;99.90;;;;;;5091776;28;20204;-59
2021/12/10 01:51:37;;;;;;;9.33;4.13;;;1.00;99.90;;;;;;5091850;28;20189;-59
2021/12/10 01:54:09;;;;;;;6.87;4.07;;;1.10;99.90;;;;;;5091643;28;20207;-58
2021/12/10 01:56:37;;;;;;;6.17;3.00;;;1.10;99.90;;;;;;5092523;28;20222;-58
2021/12/10 01:59:05;;;;;;;5.07;2.40;;;1.10;99.90;;;;;;5095767;28;20179;-58
2021/12/10 02:01:35;;;;;;;2.93;2.40;;;1.10;99.90;;;;;;5095695;28;20217;-59
2021/12/10 02:04:04;;;;;;;4.43;1.80;;;1.10;99.90;;;;;;5095793;28;20176;-59
2021/12/10 02:06:30;;;;;;;3.00;1.73;;;1.20;99.90;;;;;;5095592;28;20178;-58
2021/12/10 02:08:56;;;;;;;4.40;1.80;;;1.20;99.90;;;;;;5095491;28;20204;-59
2021/12/10 02:11:22;;;;;;;5.30;1.93;;;1.20;99.90;;;;;;5102439;28;20217;-58
2021/12/10 02:13:48;;;;;;;3.60;1.70;;;1.20;99.90;;;;;;5100981;28;20207;-59
2021/12/10 02:16:14;;;;;;;5.67;2.00;;;1.20;99.90;;;;;;5112346;28;20172;-58
2021/12/10 02:18:40;;;;;;;3.93;1.90;;;1.20;99.90;;;;;;5115773;28;20633;-59
2021/12/10 02:21:09;;;;;;;4.87;1.70;;;1.20;99.90;;;;;;5115889;28;20180;-58
2021/12/10 02:23:39;;;;;;;4.63;1.83;;;1.20;99.90;;;;;;5104989;28;20199;-59
2021/12/10 02:26:09;;;;;;;4.07;1.80;;;1.20;99.90;;;;;;5095463;28;20799;-58
2021/12/10 02:28:35;;;;;;;3.67;1.40;;;1.20;99.90;;;;;;5095074;28;20261;-58
2021/12/10 02:31:00;;;;;;;5.40;1.60;;;1.20;99.90;;;;;;5095344;28;20655;-59
2021/12/10 02:33:27;;;;;;;2.67;1.63;;;1.20;99.90;;;;;;5095253;28;20180;-58
2021/12/10 02:35:52;;;;;;;3.23;1.70;;;1.20;99.90;;;;;;5094087;28;20213;-58
2021/12/10 02:38:20;;;;;;;3.87;1.60;;;1.20;99.90;;;;;;5093569;28;20192;-59
2021/12/10 02:40:48;;;;;;;3.50;1.80;;;1.20;99.90;;;;;;5093962;28;20187;-58
2021/12/10 02:43:15;;;;;;;6.37;1.83;;;1.20;99.90;;;;;;5094720;28;20783;-58
2021/12/10 02:45:43;;;;;;;6.40;1.73;;;1.20;99.90;;;;;;5094607;28;20191;-59
2021/12/10 02:48:09;;;;;;;5.17;1.60;;;1.20;99.90;;;;;;5094640;28;20302;-58
2021/12/10 02:50:36;;;;;;;3.00;1.90;;;1.20;99.90;;;;;;5093948;28;20267;-58
2021/12/10 02:53:03;;;;;;;4.77;2.40;;;1.20;99.90;;;;;;5094503;28;20180;-58
2021/12/10 02:55:31;;;;;;;5.50;1.77;;;1.20;99.90;;;;;;5094237;28;20318;-59
2021/12/10 02:58:05;;;;;;;6.07;2.47;;;1.20;99.90;;;;;;5094437;28;20605;-59
2021/12/10 03:00:38;;;;;;;6.73;2.93;;;1.20;99.90;;;;;;5094382;28;20172;-58
2021/12/10 03:03:04;;;;;;;7.20;2.70;;;1.20;99.90;;;;;;5074551;28;20185;-59
2021/12/10 03:05:29;;;;;;;7.20;2.83;;;1.20;99.90;;;;;;5074438;28;20169;-59
2021/12/10 03:07:56;;;;;;;7.07;3.10;;;1.20;99.90;;;;;;5093232;28;20164;-59
2021/12/10 03:10:26;;;;;;;7.83;3.30;;;1.20;99.90;;;;;;5093289;28;20764;-59
2021/12/10 03:12:52;;;;;;;8.37;3.80;;;1.20;99.90;;;;;;5094161;28;20172;-59
2021/12/10 03:15:19;;;;;;;6.93;3.40;;;1.30;99.90;;;;;;5094340;28;20188;-59
2021/12/10 03:17:45;;;;;;;12.40;4.60;;;1.30;99.90;;;;;;5093642;28;20643;-59
2021/12/10 03:20:13;;;;;;;12.90;4.60;;;1.30;99.90;;;;;;5094373;28;20198;-59
2021/12/10 03:22:39;;;;;;;22.90;7.20;;;1.20;99.90;;;;;;5097626;28;20179;-59
2021/12/10 03:25:06;;;;;;;16.63;5.17;;;1.30;99.90;;;;;;5101490;28;20181;-59
2021/12/10 03:27:32;;;;;;;20.27;6.67;;;1.30;99.90;;;;;;5093513;28;20271;-59
2021/12/10 03:29:58;;;;;;;11.17;4.30;;;1.20;99.90;;;;;;5094057;28;20295;-59
2021/12/10 03:32:28;;;;;;;6.53;2.90;;;1.20;99.90;;;;;;5093610;28;20180;-59
2021/12/10 03:34:55;;;;;;;7.93;2.60;;;1.20;99.90;;;;;;5094221;28;20216;-58
2021/12/10 03:37:21;;;;;;;7.97;2.53;;;1.20;99.90;;;;;;5093635;28;20221;-59
2021/12/10 03:39:48;;;;;;;6.00;2.07;;;1.20;99.90;;;;;;5093190;28;20271;-59
2021/12/10 03:42:15;;;;;;;5.47;1.80;;;1.20;99.90;;;;;;5093833;28;20196;-59
2021/12/10 03:44:41;;;;;;;3.43;1.90;;;1.20;99.90;;;;;;5093838;28;20631;-59
2021/12/10 03:47:07;;;;;;;4.70;1.90;;;1.20;99.90;;;;;;5093684;28;20195;-58
2021/12/10 03:49:35;;;;;;;6.45;1.40;;;1.20;99.90;;;;;;5093278;28;20215;-59
2021/12/10 03:52:01;;;;;;;4.70;1.27;;;1.20;99.90;;;;;;5093830;28;20191;-59
2021/12/10 03:54:27;;;;;;;8.73;2.42;;;1.20;99.90;;;;;;5092958;28;20195;-59
2021/12/10 03:56:53;;;;;;;2.63;1.55;;;1.20;99.90;;;;;;5093729;28;20526;-58
2021/12/10 03:59:22;;;;;;;3.27;1.23;;;1.20;99.90;;;;;;5092993;28;20188;-59
2021/12/10 04:01:56;;;;;;;5.73;1.60;;;1.10;99.90;;;;;;5093325;28;20538;-59
2021/12/10 04:04:37;;;;;;;3.27;1.40;;;1.10;99.90;;;;;;5093124;28;20699;-59
2021/12/10 04:07:07;;;;;;;4.90;2.10;;;1.10;99.90;;;;;;5092171;28;20176;-58
2021/12/10 04:09:32;;;;;;;4.87;1.80;;;1.10;99.90;;;;;;5092690;28;20702;-59
2021/12/10 04:11:58;;;;;;;7.27;2.60;;;1.10;99.90;;;;;;5093338;28;20176;-59
2021/12/10 04:14:24;;;;;;;2.47;1.70;;;1.10;99.90;;;;;;5092896;28;20197;-59
2021/12/10 04:16:55;;;;;;;13.73;4.93;;;1.10;99.90;;;;;;5093225;28;20650;-59
2021/12/10 04:19:24;;;;;;;10.20;3.53;;;1.10;99.90;;;;;;5092086;28;20614;-59
2021/12/10 04:21:52;;;;;;;18.17;6.80;;;1.10;99.90;;;;;;5093211;28;20186;-59
2021/12/10 04:24:21;;;;;;;12.97;5.73;;;1.00;99.90;;;;;;5092576;28;20229;-59
2021/12/10 04:26:47;;;;;;;9.00;2.43;;;0.90;99.90;;;;;;5093026;28;20185;-59
2021/12/10 04:29:13;;;;;;;5.20;2.23;;;0.90;99.90;;;;;;5092962;28;20215;-59
2021/12/10 04:31:40;;;;;;;7.70;2.93;;;0.90;99.90;;;;;;5092879;28;20210;-59
2021/12/10 04:34:06;;;;;;;6.43;3.13;;;0.90;99.90;;;;;;5097251;28;20199;-59
2021/12/10 04:36:34;;;;;;;5.83;3.47;;;0.90;99.90;;;;;;5100446;28;20418;-59
2021/12/10 04:38:59;;;;;;;5.83;2.70;;;1.00;99.90;;;;;;5092469;28;20186;-59
2021/12/10 04:41:25;;;;;;;6.43;2.83;;;0.90;99.90;;;;;;5092752;28;20692;-59
2021/12/10 04:43:52;;;;;;;11.87;3.27;;;0.90;99.90;;;;;;5092389;28;20249;-59
2021/12/10 04:46:18;;;;;;;8.10;3.13;;;0.90;99.90;;;;;;5092641;28;20168;-59
2021/12/10 04:48:51;;;;;;;4.00;2.20;;;0.90;99.90;;;;;;5092251;28;20302;-59
2021/12/10 04:51:20;;;;;;;6.67;2.73;;;0.90;99.90;;;;;;5072303;28;20563;-59
2021/12/10 04:53:47;;;;;;;6.63;2.50;;;0.90;99.90;;;;;;5084985;28;20188;-59
2021/12/10 04:56:13;;;;;;;4.10;2.30;;;0.90;99.90;;;;;;5092426;28;20234;-59
2021/12/10 04:58:39;;;;;;;5.33;3.30;;;0.90;99.90;;;;;;5091842;28;20176;-58
2021/12/10 05:01:05;;;;;;;7.23;3.40;;;1.00;99.90;;;;;;5092547;28;20179;-58
2021/12/10 05:03:31;;;;;;;7.73;2.90;;;0.90;99.90;;;;;;5092028;28;20768;-58
2021/12/10 05:06:02;;;;;;;10.07;2.87;;;0.90;99.90;;;;;;5092356;28;20251;-59
2021/12/10 05:08:27;;;;;;;1.90;1.70;;;0.90;99.90;;;;;;5091364;28;20204;-58
2021/12/10 05:10:53;;;;;;;5.20;2.23;;;0.90;99.90;;;;;;5091515;28;20708;-59
2021/12/10 05:13:20;;;;;;;3.90;2.13;;;0.90;99.90;;;;;;5091643;28;20228;-59
2021/12/10 05:15:53;;;;;;;4.67;2.17;;;0.90;99.90;;;;;;5090811;28;20646;-58
2021/12/10 05:18:19;;;;;;;7.60;2.20;;;0.90;99.90;;;;;;5071837;28;20192;-59
2021/12/10 05:20:48;;;;;;;5.33;2.37;;;0.90;99.90;;;;;;5084318;28;20173;-60
2021/12/10 05:23:15;;;;;;;5.23;2.10;;;0.90;99.90;;;;;;5092220;28;20545;-59
2021/12/10 05:25:42;;;;;;;3.57;2.10;;;1.00;99.90;;;;;;5091447;28;20183;-58
2021/12/10 05:28:07;;;;;;;5.67;2.20;;;1.00;99.90;;;;;;5092038;28;20203;-59
2021/12/10 05:30:34;;;;;;;5.20;2.33;;;1.00;99.90;;;;;;5091348;28;20241;-59
2021/12/10 05:33:02;;;;;;;3.83;2.10;;;1.00;99.90;;;;;;5092075;28;20589;-58
2021/12/10 05:35:33;;;;;;;2.43;1.90;;;1.00;99.90;;;;;;5091445;28;20187;-59
2021/12/10 05:37:59;;;;;;;7.47;2.17;;;1.10;99.90;;;;;;5090452;28;20568;-59
2021/12/10 05:40:26;;;;;;;5.33;1.57;;;1.10;99.90;;;;;;5091564;28;20179;-59
2021/12/10 05:42:52;;;;;;;4.13;1.93;;;1.10;99.90;;;;;;5091287;28;20725;-58
2021/12/10 05:45:20;;;;;;;2.50;1.83;;;1.10;99.90;;;;;;5093463;28;20643;-59
2021/12/10 05:47:46;;;;;;;5.37;1.63;;;1.10;99.90;;;;;;5091420;28;20605;-59
2021/12/10 05:50:14;;;;;;;4.43;2.07;;;1.10;99.90;;;;;;5091771;28;20188;-59
2021/12/10 05:52:40;;;;;;;3.77;2.00;;;1.10;99.90;;;;;;5091812;28;20237;-59
2021/12/10 05:55:07;;;;;;;3.63;2.00;;;1.10;99.90;;;;;;5091556;28;20224;-59
2021/12/10 05:57:32;;;;;;;4.77;2.20;;;1.10;99.90;;;;;;5091714;28;20258;-59
2021/12/10 05:59:58;;;;;;;4.80;2.30;;;1.10;99.90;;;;;;5091870;28;20290;-60
2021/12/10 06:02:24;;;;;;;6.73;2.67;;;1.10;99.90;;;;;;5091698;28;20255;-60
2021/12/10 06:04:50;;;;;;;7.37;2.80;;;1.10;99.90;;;;;;5091647;28;20192;-58
2021/12/10 06:07:15;;;;;;;5.83;3.37;;;1.10;99.90;;;;;;5091619;28;20180;-58
2021/12/10 06:09:41;;;;;;;3.90;2.87;;;1.00;99.90;;;;;;5091441;28;20372;-58
2021/12/10 06:12:07;;;;;;;7.97;3.50;;;1.00;99.90;;;;;;5091626;28;20234;-58
2021/12/10 06:14:33;;;;;;;9.00;3.00;;;1.00;99.90;;;;;;5091422;28;20179;-58
2021/12/10 06:16:59;;;;;;;8.03;2.77;;;1.00;99.90;;;;;;5091681;28;20218;-59
2021/12/10 06:19:25;;;;;;;9.27;3.27;;;1.00;99.90;;;;;;5091438;28;20578;-59
2021/12/10 06:21:52;;;;;;;10.20;3.47;;;1.00;99.90;;;;;;5090190;28;20208;-59
2021/12/10 06:24:18;;;;;;;8.30;3.30;;;1.00;99.90;;;;;;5091533;28;20180;-60
2021/12/10 06:26:44;;;;;;;8.37;2.73;;;1.00;99.90;;;;;;5091419;28;20176;-60
2021/12/10 06:29:10;;;;;;;2.77;2.20;;;1.00;99.90;;;;;;5091362;28;20220;-60
2021/12/10 06:31:36;;;;;;;4.20;2.53;;;1.00;99.90;;;;;;5091421;28;20207;-60
2021/12/10 06:34:02;;;;;;;6.97;2.80;;;1.00;99.90;;;;;;5091437;28;20180;-60
2021/12/10 06:36:29;;;;;;;7.87;2.87;;;1.00;99.90;;;;;;5091343;28;20180;-60
2021/12/10 06:38:55;;;;;;;7.37;2.90;;;1.00;99.90;;;;;;5091217;28;20647;-60
2021/12/10 06:41:21;;;;;;;5.83;2.93;;;1.00;99.90;;;;;;5091314;28;20211;-60
2021/12/10 06:43:47;;;;;;;5.63;2.70;;;0.90;99.90;;;;;;5094150;28;20173;-60
2021/12/10 06:46:14;;;;;;;3.97;2.93;;;0.90;99.90;;;;;;5093758;28;20234;-60
2021/12/10 06:48:40;;;;;;;8.23;3.60;;;0.90;99.90;;;;;;5094950;28;20226;-60
2021/12/10 06:51:13;;;;;;;10.53;3.40;;;0.80;99.90;;;;;;5094912;28;20644;-60
2021/12/10 06:53:41;;;;;;;6.47;3.40;;;0.80;99.90;;;;;;5094776;28;20184;-60
2021/12/10 06:56:07;;;;;;;6.97;3.83;;;0.80;99.90;;;;;;5094696;28;20247;-60
2021/12/10 06:58:34;;;;;;;7.13;3.73;;;0.80;99.90;;;;;;5094660;28;20627;-59
2021/12/10 07:01:32;;;;;;;5.93;3.30;;;0.80;99.90;;;;;;5094862;28;20200;-60
2021/12/10 07:03:59;;;;;;;7.13;4.20;;;0.90;99.90;;;;;;5082206;28;20191;-61
2021/12/10 07:06:26;;;;;;;8.53;3.90;;;0.80;99.90;;;;;;5094560;28;20172;-62
2021/12/10 07:08:52;;;;;;;7.23;3.97;;;0.80;99.90;;;;;;5094427;28;20216;-60
2021/12/10 07:11:20;;;;;;;8.27;4.03;;;0.80;99.90;;;;;;5093136;28;20191;-60
2021/12/10 07:13:50;;;;;;;8.67;3.60;;;0.80;99.90;;;;;;5094545;28;20199;-60
2021/12/10 07:16:17;;;;;;;7.90;4.07;;;0.80;99.90;;;;;;5094491;28;20172;-60
2021/12/10 07:18:43;;;;;;;8.33;3.77;;;0.80;99.90;;;;;;5094461;28;20807;-60
2021/12/10 07:21:10;;;;;;;7.87;3.73;;;0.80;99.90;;;;;;5094376;28;20226;-60
2021/12/10 07:23:37;;;;;;;7.90;3.73;;;0.80;99.90;;;;;;5094279;28;20204;-60
2021/12/10 07:26:04;;;;;;;6.67;3.67;;;0.80;99.90;;;;;;5094378;28;20193;-60
2021/12/10 07:28:30;;;;;;;7.50;3.53;;;0.80;99.90;;;;;;5093922;28;20209;-60
2021/12/10 07:30:55;;;;;;;6.60;3.90;;;0.90;99.90;;;;;;5094155;28;20188;-60
2021/12/10 07:33:21;;;;;;;8.27;3.93;;;0.90;99.90;;;;;;5093846;28;20180;-60
2021/12/10 07:35:48;;;;;;;10.27;3.80;;;0.90;99.90;;;;;;5094062;28;20233;-61
2021/12/10 07:38:14;;;;;;;6.23;3.60;;;0.90;99.90;;;;;;5094087;28;20179;-60
2021/12/10 07:40:40;;;;;;;7.77;3.43;;;0.90;99.90;;;;;;5093867;28;20176;-60
2021/12/10 07:43:07;;;;;;;5.10;3.23;;;0.90;99.90;;;;;;5093993;28;20667;-60
2021/12/10 07:45:33;;;;;;;7.90;3.67;;;1.00;99.90;;;;;;5093919;28;20179;-60
2021/12/10 07:48:03;;;;;;;8.97;4.10;;;1.00;99.90;;;;;;5093688;28;20184;-61
2021/12/10 07:50:34;;;;;;;7.70;3.70;;;1.10;99.90;;;;;;5093696;28;20188;-60
2021/12/10 07:53:02;;;;;;;8.40;3.97;;;1.10;99.90;;;;;;5093609;28;20183;-60
2021/12/10 07:55:32;;;;;;;8.47;4.03;;;1.10;99.90;;;;;;5092354;28;20272;-61
2021/12/10 07:57:59;;;;;;;13.27;4.93;;;1.20;99.90;;;;;;5093657;28;20203;-61
2021/12/10 08:00:27;;;;;;;8.67;4.07;;;1.20;99.90;;;;;;5093517;28;20187;-60
2021/12/10 08:02:53;;;;;;;22.37;7.00;;;1.20;99.90;;;;;;5093561;28;20168;-60
2021/12/10 08:05:21;;;;;;;20.93;7.30;;;1.20;99.90;;;;;;5093309;28;20643;-61
2021/12/10 08:07:48;;;;;;;16.17;5.90;;;1.30;99.90;;;;;;5093456;28;20164;-60
2021/12/10 08:10:14;;;;;;;13.63;5.83;;;1.40;99.90;;;;;;5093372;28;20216;-60
2021/12/10 08:12:40;;;;;;;10.63;5.00;;;1.40;99.90;;;;;;5093209;28;20676;-60
2021/12/10 08:15:07;;;;;;;9.60;4.27;;;1.50;99.90;;;;;;5093435;28;20177;-60
2021/12/10 08:17:33;;;;;;;9.53;3.80;;;1.50;99.90;;;;;;5093038;28;20267;-60
2021/12/10 08:19:59;;;;;;;8.03;3.60;;;1.60;99.90;;;;;;5093158;28;20206;-60
2021/12/10 08:22:24;;;;;;;8.00;3.83;;;1.60;99.90;;;;;;5093124;28;20200;-61
2021/12/10 08:24:50;;;;;;;6.50;3.63;;;1.70;99.90;;;;;;5093113;28;20167;-58
2021/12/10 08:27:16;;;;;;;9.47;3.20;;;1.70;99.90;;;;;;5093156;28;20168;-58
2021/12/10 08:29:44;;;;;;;7.90;3.77;;;1.80;99.90;;;;;;5092734;28;20580;-58
2021/12/10 08:32:12;;;;;;;5.70;3.70;;;1.80;99.90;;;;;;5093046;28;20180;-58
2021/12/10 08:34:38;;;;;;;5.93;3.57;;;2.00;99.90;;;;;;5092800;28;20181;-58
2021/12/10 08:37:05;;;;;;;10.70;4.10;;;2.00;99.90;;;;;;5092888;28;20215;-58
2021/12/10 08:39:30;;;;;;;7.57;3.67;;;2.10;99.90;;;;;;5092811;28;20255;-58
2021/12/10 08:41:58;;;;;;;10.70;4.00;;;2.20;99.90;;;;;;5092770;28;20259;-57
2021/12/10 08:44:24;;;;;;;5.50;3.53;;;2.30;99.90;;;;;;5092712;28;20255;-58
2021/12/10 08:46:50;;;;;;;5.47;3.27;;;2.40;99.90;;;;;;5092597;28;20627;-59
2021/12/10 08:49:16;;;;;;;7.40;3.80;;;2.60;99.90;;;;;;5092612;28;20224;-58
2021/12/10 08:51:47;;;;;;;7.03;3.70;;;2.60;99.90;;;;;;5092528;28;20176;-58
2021/12/10 08:54:14;;;;;;;8.38;3.42;;;2.70;99.90;;;;;;5092460;28;20184;-58
2021/12/10 08:56:41;;;;;;;5.43;3.40;;;2.70;99.90;;;;;;5092103;28;20239;-58
2021/12/10 08:59:07;;;;;;;12.17;3.73;;;2.80;99.90;;;;;;5092423;28;20187;-58
2021/12/10 09:01:37;;;;;;;10.02;4.20;;;2.80;99.90;;;;;;5091102;28;20635;-58
2021/12/10 09:04:06;;;;;;;6.78;3.85;;;2.90;99.90;;;;;;5092465;28;20191;-58
2021/12/10 09:06:34;;;;;;;8.45;3.78;;;2.90;99.90;;;;;;5092080;28;20172;-58
2021/12/10 09:09:03;;;;;;;5.75;3.55;;;2.90;99.90;;;;;;5092055;28;20216;-59
2021/12/10 09:11:29;;;;;;;8.13;3.67;;;3.00;99.90;;;;;;5092646;28;20191;-59
2021/12/10 09:13:54;;;;;;;8.77;3.70;;;3.00;99.90;;;;;;5092406;28;20171;-59
2021/12/10 09:16:28;;;;;;;9.80;3.55;;;3.00;99.90;;;;;;5090898;28;20657;-59
2021/12/10 09:18:58;;;;;;;5.80;3.60;;;3.00;99.90;;;;;;5092113;28;20646;-59
2021/12/10 09:21:24;;;;;;;6.03;3.75;;;3.00;99.90;;;;;;5092131;28;20635;-59
2021/12/10 09:23:53;;;;;;;4.43;3.10;;;3.00;99.90;;;;;;5092217;28;20180;-58
2021/12/10 09:26:19;;;;;;;6.22;3.00;;;2.90;99.90;;;;;;5091993;28;20522;-58
2021/12/10 09:28:46;;;;;;;4.95;3.03;;;2.90;99.90;;;;;;5091900;28;20744;-58
2021/12/10 09:31:14;;;;;;;6.90;3.30;;;2.80;99.90;;;;;;5092129;28;20229;-59
2021/12/10 09:33:40;;;;;;;5.90;2.90;;;2.80;99.90;;;;;;5091961;28;20195;-59
2021/12/10 09:36:06;;;;;;;3.30;2.53;;;2.80;99.90;;;;;;5092041;28;20635;-58
2021/12/10 09:38:33;;;;;;;4.43;2.80;;;2.90;99.90;;;;;;5090688;28;20187;-59
2021/12/10 09:41:04;;;;;;;4.25;2.72;;;2.90;99.90;;;;;;5091796;28;20203;-59
2021/12/10 09:43:32;;;;;;;6.78;3.03;;;2.90;99.90;;;;;;5091933;28;20535;-58
2021/12/10 09:45:58;;;;;;;4.63;2.80;;;2.90;99.90;;;;;;5091774;28;20268;-59
2021/12/10 09:48:25;;;;;;;4.20;2.83;;;3.00;99.90;;;;;;5091884;28;20204;-59
2021/12/10 09:50:57;;;;;;;3.58;2.60;;;3.00;99.90;;;;;;5091917;28;20196;-58
2021/12/10 09:53:25;;;;;;;5.63;2.35;;;3.10;99.90;;;;;;5091768;28;20176;-58
2021/12/10 09:55:52;;;;;;;6.60;3.45;;;3.00;99.90;;;;;;5091641;28;20224;-58
2021/12/10 09:58:18;;;;;;;10.57;3.67;;;3.00;99.90;;;;;;5091812;28;20180;-58
2021/12/10 10:00:48;;;;;;;17.88;8.57;;;3.10;99.90;;;;;;5091869;28;20619;-59
2021/12/10 10:03:18;;;;;;;9.97;3.40;;;3.10;99.90;;;;;;5091937;28;20525;-59
2021/12/10 10:05:45;;;;;;;4.25;2.42;;;3.10;99.90;;;;;;5091660;28;20571;-58
2021/12/10 10:08:15;;;;;;;5.77;2.87;;;3.00;99.90;;;;;;5091696;28;20267;-59
2021/12/10 10:10:44;;;;;;;6.60;3.80;;;3.00;99.90;;;;;;5090311;28;20225;-59
2021/12/10 10:13:11;;;;;;;4.55;3.13;;;3.10;99.90;;;;;;5091573;28;20275;-59
2021/12/10 10:15:40;;;;;;;8.93;3.33;;;3.10;99.90;;;;;;5091529;28;20191;-59
2021/12/10 10:18:08;;;;;;;4.30;2.47;;;3.10;99.90;;;;;;5092283;28;20175;-59
2021/12/10 10:20:37;;;;;;;4.72;2.60;;;3.10;99.90;;;;;;5095532;28;20306;-58
2021/12/10 10:23:05;;;;;;;6.60;3.20;;;3.10;99.90;;;;;;5095609;28;20180;-58
2021/12/10 10:25:33;;;;;;;9.95;3.95;;;3.20;99.90;;;;;;5095388;28;20168;-60
2021/12/10 10:28:43;;;;;;;10.30;3.88;;;3.30;99.90;;;;;;5095319;28;20180;-60
2021/12/10 10:31:17;;;;;;;5.15;3.15;;;3.50;99.90;;;;;;5075586;28;20208;-60
2021/12/10 10:33:45;;;;;;;7.30;3.65;;;3.60;99.90;;;;;;5095283;28;20172;-60
2021/12/10 10:36:19;;;;;;;4.75;2.92;;;3.80;99.90;;;;;;5095342;28;20175;-60
2021/12/10 10:38:48;;;;;;;9.07;3.05;;;3.90;99.90;;;;;;5095186;28;20178;-61
2021/12/10 10:41:16;;;;;;;3.92;2.70;;;4.00;99.90;;;;;;5095185;28;20187;-60
2021/12/10 10:43:42;;;;;;;3.58;2.28;;;4.10;99.90;;;;;;5095025;28;20184;-60
2021/12/10 10:46:11;;;;;;;6.25;2.63;;;4.10;99.90;;;;;;5095252;28;20196;-60
2021/12/10 10:48:38;;;;;;;4.65;2.70;;;4.10;99.90;;;;;;5094885;28;20684;-60
2021/12/10 10:51:09;;;;;;;6.28;3.25;;;4.10;99.90;;;;;;5095033;28;20222;-59
2021/12/10 10:53:44;;;;;;;7.53;3.58;;;4.10;99.90;;;;;;5094735;28;20222;-59
2021/12/10 10:56:32;;;;;;;5.43;2.58;;;4.10;99.90;;;;;;5094707;28;20231;-59
2021/12/10 10:59:02;;;;;;;3.20;2.20;;;4.00;99.90;;;;;;5084946;28;20250;-59
2021/12/10 11:01:40;;;;;;;4.93;2.65;;;4.00;99.90;;;;;;5094808;28;20217;-59
2021/12/10 11:04:17;;;;;;;5.00;2.60;;;4.10;99.90;;;;;;5094885;28;20255;-59
2021/12/10 11:06:47;;;;;;;5.55;3.13;;;4.10;99.90;;;;;;5094657;28;20176;-59
2021/12/10 11:09:19;;;;;;;6.78;3.15;;;4.20;99.90;;;;;;5094765;28;20298;-61
2021/12/10 11:11:50;;;;;;;4.72;3.40;;;4.20;99.90;;;;;;5094560;28;20172;-59
2021/12/10 11:14:28;;;;;;;4.93;2.88;;;4.20;99.90;;;;;;5094676;28;20202;-60
2021/12/10 11:17:03;;;;;;;4.18;2.80;;;4.30;99.90;;;;;;5094623;28;20247;-60
2021/12/10 11:19:30;;;;;;;5.22;2.60;;;4.30;99.90;;;;;;5094434;28;20260;-60
2021/12/10 11:22:08;;;;;;;7.78;2.70;;;4.30;99.90;;;;;;5094543;28;20168;-60
2021/12/10 11:24:46;;;;;;;7.25;3.13;;;4.20;99.90;;;;;;5094425;28;20263;-60
2021/12/10 11:27:20;;;;;;;6.63;3.15;;;4.30;99.90;;;;;;5094508;28;20263;-60
2021/12/10 11:29:52;;;;;;;8.45;2.42;;;4.30;99.90;;;;;;5094031;28;20714;-60
2021/12/10 11:32:23;;;;;;;7.88;2.78;;;4.20;99.90;;;;;;5092743;28;20586;-60
2021/12/10 11:35:03;;;;;;;4.45;2.47;;;4.20;99.90;;;;;;5094238;28;20275;-60
2021/12/10 11:37:54;;;;;;;4.63;2.92;;;4.10;99.90;;;;;;5094027;28;20214;-60
2021/12/10 11:40:35;;;;;;;7.53;3.38;;;4.10;99.90;;;;;;5093865;28;20190;-59
2021/12/10 11:43:44;;;;;;;6.45;3.88;;;4.00;99.90;;;;;;5093853;28;20215;-59
2021/12/10 11:46:43;;;;;;;8.63;4.43;;;3.90;99.90;;;;;;5093877;28;20650;-60
2021/12/10 11:49:24;;;;;;;6.85;3.28;;;3.90;99.90;;;;;;5093885;28;20250;-60
2021/12/10 11:52:05;;;;;;;4.53;3.13;;;3.80;99.90;;;;;;5093924;28;20184;-60
2021/12/10 11:54:36;;;;;;;7.47;3.50;;;3.70;99.90;;;;;;5093453;28;20557;-60
2021/12/10 11:57:01;;;;;;;9.48;3.17;;;3.70;99.90;;;;;;5093556;28;20657;-59
2021/12/10 11:59:39;;;;;;;7.95;3.70;;;3.70;99.90;;;;;;5093885;28;20254;-61
2021/12/10 12:02:09;;;;;;;11.15;4.55;;;3.60;99.90;;;;;;5093660;28;20172;-61
2021/12/10 12:05:09;;;;;;;9.95;4.28;;;3.60;99.90;;;;;;5093606;28;20172;-61
2021/12/10 12:07:44;;;;;;;7.85;4.35;;;3.60;99.90;;;;;;5092507;28;20172;-61
2021/12/10 12:10:31;;;;;;;6.38;3.45;;;3.60;99.90;;;;;;5093482;28;20610;-61
2021/12/10 12:13:03;;;;;;;7.03;3.45;;;3.50;99.90;;;;;;5093515;28;20191;-60
2021/12/10 12:15:30;;;;;;;3.42;1.88;;;3.50;99.90;;;;;;5093299;28;20229;-60
2021/12/10 12:18:08;;;;;;;2.85;2.28;;;3.40;99.90;;;;;;5093386;28;20199;-60
2021/12/10 12:20:39;;;;;;;3.40;2.17;;;3.30;99.90;;;;;;5093229;28;20172;-60
2021/12/10 12:26:33;;;;;;;2.60;2.20;;;3.20;99.90;;;;;;5093364;28;20292;-60
2021/12/10 12:29:05;;;;;;;3.75;2.53;;;3.20;99.90;;;;;;5092926;28;20683;-60
2021/12/10 12:31:33;;;;;;;4.05;2.15;;;3.20;99.90;;;;;;5092946;28;20358;-60
2021/12/10 12:34:44;;;;;;;5.03;2.30;;;3.20;99.90;;;;;;5093063;28;20639;-59
2021/12/10 12:37:12;;;;;;;3.67;1.93;;;3.20;99.90;;;;;;5089977;28;20199;-60
2021/12/10 12:39:48;;;;;;;2.00;1.70;;;3.20;99.90;;;;;;5092489;28;20175;-60
2021/12/10 12:42:23;;;;;;;2.25;2.00;;;3.20;99.90;;;;;;5092856;28;20249;-60
2021/12/10 12:44:56;;;;;;;4.50;1.75;;;3.30;99.90;;;;;;5092836;28;20632;-60
2021/12/10 12:47:33;;;;;;;2.63;1.70;;;3.30;99.90;;;;;;5092626;28;20180;-60
2021/12/10 12:50:18;;;;;;;1.98;1.58;;;3.30;99.90;;;;;;5092572;28;20215;-60
2021/12/10 12:52:45;;;;;;;2.80;2.10;;;3.20;99.90;;;;;;5092769;28;20180;-60
2021/12/10 12:55:21;;;;;;;1.60;1.50;;;3.30;99.90;;;;;;5092571;28;20289;-60
2021/12/10 12:58:14;;;;;;;2.28;1.70;;;3.30;99.90;;;;;;5092475;28;20704;-60
2021/12/10 13:01:02;;;;;;;3.78;1.80;;;3.30;99.90;;;;;;5092536;28;20184;-60
2021/12/10 13:03:34;;;;;;;1.40;1.30;;;3.30;99.90;;;;;;5092528;28;20176;-60
2021/12/10 13:06:17;;;;;;;2.92;1.50;;;3.30;99.90;;;;;;5092470;28;20230;-60
2021/12/10 13:08:57;;;;;;;2.45;1.70;;;3.40;99.90;;;;;;5092259;28;20206;-61
2021/12/10 13:11:46;;;;;;;4.85;2.20;;;3.30;99.90;;;;;;5092339;28;20534;-61
2021/12/10 13:14:15;;;;;;;5.63;2.10;;;3.30;99.90;;;;;;5092455;28;20180;-61
2021/12/10 13:16:45;;;;;;;4.50;2.00;;;3.40;99.90;;;;;;5092196;28;20208;-60
2021/12/10 13:19:16;;;;;;;2.70;1.83;;;3.40;99.90;;;;;;5092353;28;20519;-60